createdAt,value
2017-05-19T00:00:32.752Z,1002.07
2017-05-19T00:01:32.761Z,1002.07
2017-05-19T00:02:32.770Z,1002.09
2017-05-19T00:03:32.778Z,1002.03
2017-05-19T00:04:32.787Z,1002.09
2017-05-19T00:05:32.796Z,1002.14
2017-05-19T00:06:32.803Z,1002.06
2017-05-19T00:07:32.810Z,1002.05
2017-05-19T00:08:32.821Z,1002.03
2017-05-19T00:09:32.831Z,1002.06
2017-05-19T00:10:32.838Z,1002.03
2017-05-19T00:11:32.845Z,1002.02
2017-05-19T00:12:32.854Z,1002.03
2017-05-19T00:13:32.919Z,1002.01
2017-05-19T00:14:32.871Z,1002.04
2017-05-19T00:15:32.931Z,1002.01
2017-05-19T00:16:32.889Z,1002.02
2017-05-19T00:17:32.897Z,1001.98
2017-05-19T00:18:32.905Z,1001.96
2017-05-19T00:19:32.913Z,1001.96
2017-05-19T00:20:32.972Z,1001.93
2017-05-19T00:21:32.931Z,1001.92
2017-05-19T00:22:32.939Z,1001.88
2017-05-19T00:23:32.949Z,1001.84
2017-05-19T00:24:32.957Z,1001.86
2017-05-19T00:25:32.963Z,1001.86
2017-05-19T00:26:32.973Z,1001.83
2017-05-19T00:27:32.981Z,1001.82
2017-05-19T00:28:32.992Z,1001.77
2017-05-19T00:29:32.998Z,1001.79
2017-05-19T00:30:33.006Z,1001.81
2017-05-19T00:31:33.015Z,1001.79
2017-05-19T00:32:33.072Z,1001.8
2017-05-19T00:33:33.033Z,1001.81
2017-05-19T00:34:33.039Z,1001.82
2017-05-19T00:35:33.048Z,1001.83
2017-05-19T00:36:33.056Z,1001.86
2017-05-19T00:37:33.065Z,1001.86
2017-05-19T00:38:33.074Z,1001.88
2017-05-19T00:39:33.082Z,1001.87
2017-05-19T00:40:33.090Z,1001.88
2017-05-19T00:41:33.098Z,1001.86
2017-05-19T00:42:33.106Z,1001.86
2017-05-19T00:43:33.115Z,1001.91
2017-05-19T00:44:33.124Z,1001.92
2017-05-19T00:45:33.132Z,1001.93
2017-05-19T00:46:33.141Z,1001.94
2017-05-19T00:47:33.149Z,1001.97
2017-05-19T00:48:33.157Z,1001.99
2017-05-19T00:49:33.165Z,1002
2017-05-19T00:50:33.174Z,1002.03
2017-05-19T00:51:33.182Z,1002.06
2017-05-19T00:52:33.188Z,1002.09
2017-05-19T00:53:33.198Z,1002.11
2017-05-19T00:54:33.207Z,1002.1
2017-05-19T00:55:33.214Z,1002.08
2017-05-19T00:56:33.222Z,1002.13
2017-05-19T00:57:33.232Z,1002.13
2017-05-19T00:58:33.237Z,1002.15
2017-05-19T00:59:33.248Z,1002.13
2017-05-19T01:00:33.256Z,1002.12
2017-05-19T01:01:33.265Z,1002.15
2017-05-19T01:02:33.272Z,1002.14
2017-05-19T01:03:33.331Z,1002.14
2017-05-19T01:04:33.340Z,1002.17
2017-05-19T01:05:33.296Z,1002.15
2017-05-19T01:06:33.306Z,1002.15
2017-05-19T01:07:33.315Z,1002.14
2017-05-19T01:08:33.321Z,1002.18
2017-05-19T01:09:33.331Z,1002.2
2017-05-19T01:10:33.388Z,1002.26
2017-05-19T01:11:33.349Z,1002.27
2017-05-19T01:12:33.356Z,1002.31
2017-05-19T01:13:33.365Z,1002.38
2017-05-19T01:14:33.371Z,1002.39
2017-05-19T01:15:33.382Z,1002.39
2017-05-19T01:16:33.442Z,1002.39
2017-05-19T01:17:33.397Z,1002.39
2017-05-19T01:18:33.406Z,1002.39
2017-05-19T01:19:33.415Z,1002.43
2017-05-19T01:20:33.420Z,1002.44
2017-05-19T01:21:33.431Z,1002.42
2017-05-19T01:22:33.439Z,1002.4
2017-05-19T01:23:33.449Z,1002.43
2017-05-19T01:24:33.455Z,1002.45
2017-05-19T01:25:33.463Z,1002.45
2017-05-19T01:26:33.471Z,1002.46
2017-05-19T01:27:33.479Z,1002.46
2017-05-19T01:28:33.488Z,1002.42
2017-05-19T01:29:33.498Z,1002.5
2017-05-19T01:30:33.507Z,1002.46
2017-05-19T01:31:33.513Z,1002.45
2017-05-19T01:32:33.521Z,1002.45
2017-05-19T01:33:33.531Z,1002.48
2017-05-19T01:34:33.542Z,1002.48
2017-05-19T01:35:33.546Z,1002.43
2017-05-19T01:36:33.557Z,1002.38
2017-05-19T01:37:33.564Z,1002.37
2017-05-19T01:38:33.572Z,1002.34
2017-05-19T01:39:33.580Z,1002.32
2017-05-19T01:40:33.589Z,1002.34
2017-05-19T01:41:33.602Z,1002.31
2017-05-19T01:42:33.604Z,1002.29
2017-05-19T01:43:33.614Z,1002.3
2017-05-19T01:44:33.621Z,1002.24
2017-05-19T01:45:33.632Z,1002.16
2017-05-19T01:46:33.636Z,1002.15
2017-05-19T01:47:33.647Z,1002.27
2017-05-19T01:48:33.655Z,1002.29
2017-05-19T01:49:33.665Z,1002.32
2017-05-19T01:50:33.671Z,1002.28
2017-05-19T01:51:33.680Z,1002.3
2017-05-19T01:52:33.690Z,1002.29
2017-05-19T01:53:33.745Z,1002.28
2017-05-19T01:54:33.704Z,1002.19
2017-05-19T01:55:33.714Z,1002.07
2017-05-19T01:56:33.723Z,1001.97
2017-05-19T01:57:33.728Z,1001.9
2017-05-19T01:58:33.738Z,1001.97
2017-05-19T01:59:33.752Z,1002.01
2017-05-19T02:00:33.754Z,1002.02
2017-05-19T02:01:33.764Z,1002.01
2017-05-19T02:02:33.771Z,1001.98
2017-05-19T02:03:33.780Z,1001.97
2017-05-19T02:04:33.786Z,1001.83
2017-05-19T02:05:33.795Z,1001.76
2017-05-19T02:06:33.805Z,1001.87
2017-05-19T02:07:33.814Z,1001.96
2017-05-19T02:08:33.821Z,1002.09
2017-05-19T02:09:33.829Z,1002.16
2017-05-19T02:10:33.838Z,1002.16
2017-05-19T02:11:33.843Z,1002.11
2017-05-19T02:12:33.854Z,1002.01
2017-05-19T02:13:33.913Z,1001.96
2017-05-19T02:14:33.870Z,1002
2017-05-19T02:15:33.878Z,1002.03
2017-05-19T02:16:33.890Z,1002.03
2017-05-19T02:17:33.896Z,1002
2017-05-19T02:18:33.913Z,1001.97
2017-05-19T02:19:33.913Z,1002
2017-05-19T02:20:33.922Z,1002.02
2017-05-19T02:21:33.930Z,1002.04
2017-05-19T02:22:33.939Z,1002
2017-05-19T02:23:33.947Z,1001.95
2017-05-19T02:24:33.955Z,1001.94
2017-05-19T02:25:33.965Z,1001.93
2017-05-19T02:26:33.969Z,1001.98
2017-05-19T02:27:34.030Z,1002.01
2017-05-19T02:28:34.038Z,1002.05
2017-05-19T02:29:33.996Z,1002.05
2017-05-19T02:30:34.004Z,1002.07
2017-05-19T02:31:34.013Z,1002.06
2017-05-19T02:32:34.022Z,1002.01
2017-05-19T02:33:34.029Z,1002.05
2017-05-19T02:34:34.038Z,1002.04
2017-05-19T02:35:34.096Z,1002.07
2017-05-19T02:36:34.054Z,1002.03
2017-05-19T02:37:34.063Z,1002.07
2017-05-19T02:38:34.072Z,1002.07
2017-05-19T02:39:34.080Z,1002.09
2017-05-19T02:40:34.137Z,1002.04
2017-05-19T02:41:34.096Z,1002.05
2017-05-19T02:42:34.104Z,1002.01
2017-05-19T02:43:34.113Z,1002.02
2017-05-19T02:44:34.172Z,1002
2017-05-19T02:45:34.129Z,1001.99
2017-05-19T02:46:34.138Z,1002
2017-05-19T02:47:34.145Z,1002
2017-05-19T02:48:34.154Z,1002.01
2017-05-19T02:49:34.162Z,1002.05
2017-05-19T02:50:34.221Z,1002.04
2017-05-19T02:51:34.235Z,1002.02
2017-05-19T02:52:34.487Z,1002.02
2017-05-19T02:53:34.246Z,1002.01
2017-05-19T02:54:34.203Z,1001.97
2017-05-19T02:55:34.212Z,1001.99
2017-05-19T02:56:34.221Z,1001.97
2017-05-19T02:57:34.229Z,1001.97
2017-05-19T02:58:34.237Z,1001.94
2017-05-19T02:59:34.245Z,1001.94
2017-05-19T03:00:34.253Z,1001.94
2017-05-19T03:01:34.263Z,1001.96
2017-05-19T03:02:34.270Z,1001.97
2017-05-19T03:03:34.280Z,1001.92
2017-05-19T03:04:34.287Z,1001.95
2017-05-19T03:05:34.295Z,1001.91
2017-05-19T03:06:34.304Z,1001.9
2017-05-19T03:07:34.310Z,1001.91
2017-05-19T03:08:34.320Z,1001.95
2017-05-19T03:09:34.329Z,1001.96
2017-05-19T03:10:34.337Z,1001.94
2017-05-19T03:11:34.346Z,1001.94
2017-05-19T03:12:34.353Z,1001.99
2017-05-19T03:13:34.362Z,1001.94
2017-05-19T03:14:34.370Z,1001.93
2017-05-19T03:15:34.378Z,1001.87
2017-05-19T03:16:34.387Z,1001.95
2017-05-19T03:17:34.395Z,1001.94
2017-05-19T03:18:34.403Z,1001.93
2017-05-19T03:19:34.413Z,1001.94
2017-05-19T03:20:34.421Z,1001.97
2017-05-19T03:21:34.428Z,1001.98
2017-05-19T03:22:34.437Z,1002.01
2017-05-19T03:23:34.445Z,1002
2017-05-19T03:24:34.451Z,1002.05
2017-05-19T03:25:34.461Z,1002.02
2017-05-19T03:26:34.520Z,1002
2017-05-19T03:27:34.479Z,1002.03
2017-05-19T03:28:34.486Z,1001.96
2017-05-19T03:29:34.495Z,1001.97
2017-05-19T03:30:34.553Z,1001.95
2017-05-19T03:31:34.513Z,1001.93
2017-05-19T03:32:34.519Z,1001.96
2017-05-19T03:33:34.528Z,1001.97
2017-05-19T03:34:34.536Z,1001.99
2017-05-19T03:35:34.545Z,1002
2017-05-19T03:36:34.553Z,1002
2017-05-19T03:37:34.562Z,1002
2017-05-19T03:38:34.570Z,1001.96
2017-05-19T03:39:34.578Z,1001.96
2017-05-19T03:40:34.586Z,1001.94
2017-05-19T03:41:34.595Z,1001.94
2017-05-19T03:42:34.605Z,1001.93
2017-05-19T03:43:34.612Z,1001.9
2017-05-19T03:44:34.669Z,1001.89
2017-05-19T03:45:34.629Z,1001.91
2017-05-19T03:46:34.635Z,1001.92
2017-05-19T03:47:34.645Z,1001.92
2017-05-19T03:48:34.653Z,1001.89
2017-05-19T03:49:34.662Z,1001.93
2017-05-19T03:50:34.719Z,1001.97
2017-05-19T03:51:34.677Z,1002.01
2017-05-19T03:52:34.737Z,1002.01
2017-05-19T03:53:34.695Z,1002.03
2017-05-19T03:54:34.703Z,1001.98
2017-05-19T03:55:34.713Z,1002
2017-05-19T03:56:34.721Z,1001.97
2017-05-19T03:57:34.728Z,1001.95
2017-05-19T03:58:34.738Z,1001.95
2017-05-19T03:59:34.746Z,1001.96
2017-05-19T04:00:34.753Z,1001.93
2017-05-19T04:01:34.762Z,1001.99
2017-05-19T04:02:34.770Z,1001.95
2017-05-19T04:03:34.830Z,1001.92
2017-05-19T04:04:34.786Z,1001.86
2017-05-19T04:05:34.794Z,1001.89
2017-05-19T04:06:34.804Z,1001.87
2017-05-19T04:07:34.812Z,1001.87
2017-05-19T04:08:34.819Z,1001.82
2017-05-19T04:09:34.828Z,1001.76
2017-05-19T04:10:34.838Z,1001.76
2017-05-19T04:11:34.843Z,1001.72
2017-05-19T04:12:34.853Z,1001.74
2017-05-19T04:13:34.862Z,1001.82
2017-05-19T04:14:34.870Z,1001.93
2017-05-19T04:15:34.878Z,1002
2017-05-19T04:16:34.886Z,1002.06
2017-05-19T04:17:34.895Z,1002.11
2017-05-19T04:18:34.903Z,1002.19
2017-05-19T04:19:34.911Z,1002.19
2017-05-19T04:20:34.968Z,1002.17
2017-05-19T04:21:34.978Z,1002.18
2017-05-19T04:22:34.937Z,1002.15
2017-05-19T04:23:34.943Z,1002.15
2017-05-19T04:24:34.951Z,1002.16
2017-05-19T04:25:34.960Z,1002.16
2017-05-19T04:26:34.968Z,1002.16
2017-05-19T04:27:34.978Z,1002.18
2017-05-19T04:28:34.984Z,1002.17
2017-05-19T04:29:34.992Z,1002.16
2017-05-19T04:30:35.001Z,1002.17
2017-05-19T04:31:35.010Z,1002.13
2017-05-19T04:32:35.019Z,1002.15
2017-05-19T04:33:35.027Z,1002.13
2017-05-19T04:34:35.034Z,1002.18
2017-05-19T04:35:35.043Z,1002.22
2017-05-19T04:36:35.102Z,1002.26
2017-05-19T04:37:35.059Z,1002.23
2017-05-19T04:38:35.068Z,1002.19
2017-05-19T04:39:35.076Z,1002.17
2017-05-19T04:40:35.085Z,1002.17
2017-05-19T04:41:35.092Z,1002.21
2017-05-19T04:42:35.152Z,1002.24
2017-05-19T04:43:35.110Z,1002.26
2017-05-19T04:44:35.118Z,1002.3
2017-05-19T04:45:35.125Z,1002.29
2017-05-19T04:46:35.133Z,1002.31
2017-05-19T04:47:35.142Z,1002.31
2017-05-19T04:48:35.152Z,1002.36
2017-05-19T04:49:35.158Z,1002.38
2017-05-19T04:50:35.218Z,1002.38
2017-05-19T04:51:35.174Z,1002.41
2017-05-19T04:52:35.184Z,1002.41
2017-05-19T04:53:35.192Z,1002.41
2017-05-19T04:54:35.199Z,1002.39
2017-05-19T04:55:35.208Z,1002.35
2017-05-19T04:56:35.214Z,1002.43
2017-05-19T04:57:35.225Z,1002.44
2017-05-19T04:58:35.232Z,1002.44
2017-05-19T04:59:35.241Z,1002.47
2017-05-19T05:00:35.249Z,1002.48
2017-05-19T05:01:35.258Z,1002.47
2017-05-19T05:02:35.266Z,1002.48
2017-05-19T05:03:35.274Z,1002.54
2017-05-19T05:04:35.282Z,1002.57
2017-05-19T05:05:35.291Z,1002.57
2017-05-19T05:06:35.298Z,1002.64
2017-05-19T05:07:35.307Z,1002.57
2017-05-19T05:08:35.315Z,1002.59
2017-05-19T05:09:35.324Z,1002.66
2017-05-19T05:10:35.331Z,1002.62
2017-05-19T05:11:35.340Z,1002.7
2017-05-19T05:12:35.349Z,1002.68
2017-05-19T05:13:35.357Z,1002.66
2017-05-19T05:14:35.416Z,1002.7
2017-05-19T05:15:35.372Z,1002.7
2017-05-19T05:16:35.382Z,1002.67
2017-05-19T05:17:35.440Z,1002.75
2017-05-19T05:18:35.398Z,1002.81
2017-05-19T05:19:35.411Z,1002.8
2017-05-19T05:20:35.413Z,1002.76
2017-05-19T05:21:35.424Z,1002.81
2017-05-19T05:22:35.430Z,1002.79
2017-05-19T05:23:35.440Z,1002.8
2017-05-19T05:24:35.447Z,1002.84
2017-05-19T05:25:35.505Z,1002.94
2017-05-19T05:26:35.464Z,1002.93
2017-05-19T05:27:35.471Z,1002.96
2017-05-19T05:28:35.480Z,1002.96
2017-05-19T05:29:35.489Z,1003.05
2017-05-19T05:30:35.498Z,1003.06
2017-05-19T05:31:35.556Z,1003.07
2017-05-19T05:32:35.514Z,1003.11
2017-05-19T05:33:35.523Z,1003.19
2017-05-19T05:34:35.531Z,1003.15
2017-05-19T05:35:35.538Z,1003.2
2017-05-19T05:36:35.547Z,1003.23
2017-05-19T05:37:35.555Z,1003.2
2017-05-19T05:38:35.564Z,1003.25
2017-05-19T05:39:35.570Z,1003.28
2017-05-19T05:40:35.579Z,1003.34
2017-05-19T05:41:35.588Z,1003.35
2017-05-19T05:42:35.597Z,1003.47
2017-05-19T05:43:35.605Z,1003.5
2017-05-19T05:44:35.611Z,1003.5
2017-05-19T05:45:35.619Z,1003.64
2017-05-19T05:46:35.630Z,1003.59
2017-05-19T05:47:35.641Z,1003.64
2017-05-19T05:48:35.646Z,1003.67
2017-05-19T05:49:35.654Z,1003.64
2017-05-19T05:50:35.661Z,1003.72
2017-05-19T05:51:35.670Z,1003.72
2017-05-19T05:52:35.679Z,1003.75
2017-05-19T05:53:35.741Z,1003.79
2017-05-19T05:54:35.693Z,1003.91
2017-05-19T05:55:35.753Z,1003.93
2017-05-19T05:56:35.713Z,1003.91
2017-05-19T05:57:35.720Z,1003.96
2017-05-19T05:58:35.728Z,1003.93
2017-05-19T05:59:35.736Z,1003.96
2017-05-19T06:00:35.745Z,1003.91
2017-05-19T06:01:35.752Z,1003.95
2017-05-19T06:02:35.761Z,1004.01
2017-05-19T06:03:35.769Z,1004.01
2017-05-19T06:04:35.778Z,1003.99
2017-05-19T06:05:35.784Z,1004.02
2017-05-19T06:06:35.794Z,1004.04
2017-05-19T06:07:35.802Z,1004.09
2017-05-19T06:08:35.810Z,1004.1
2017-05-19T06:09:35.818Z,1004.1
2017-05-19T06:10:35.826Z,1004.14
2017-05-19T06:11:35.836Z,1004.14
2017-05-19T06:12:35.842Z,1004.18
2017-05-19T06:13:35.851Z,1004.26
2017-05-19T06:14:35.859Z,1004.25
2017-05-19T06:15:35.867Z,1004.25
2017-05-19T06:16:35.876Z,1004.28
2017-05-19T06:17:35.884Z,1004.23
2017-05-19T06:18:35.893Z,1004.32
2017-05-19T06:19:35.900Z,1004.32
2017-05-19T06:20:35.909Z,1004.35
2017-05-19T06:21:35.915Z,1004.38
2017-05-19T06:22:35.927Z,1004.42
2017-05-19T06:23:35.933Z,1004.36
2017-05-19T06:24:35.941Z,1004.43
2017-05-19T06:25:35.950Z,1004.43
2017-05-19T06:26:35.959Z,1004.43
2017-05-19T06:27:35.965Z,1004.41
2017-05-19T06:28:35.974Z,1004.41
2017-05-19T06:29:35.982Z,1004.42
2017-05-19T06:30:35.991Z,1004.44
2017-05-19T06:31:35.999Z,1004.44
2017-05-19T06:32:36.008Z,1004.47
2017-05-19T06:33:36.015Z,1004.43
2017-05-19T06:34:36.022Z,1004.42
2017-05-19T06:35:36.030Z,1004.43
2017-05-19T06:36:36.039Z,1004.43
2017-05-19T06:37:36.048Z,1004.42
2017-05-19T06:38:36.054Z,1004.43
2017-05-19T06:39:36.063Z,1004.4
2017-05-19T06:40:36.072Z,1004.43
2017-05-19T06:41:36.080Z,1004.46
2017-05-19T06:42:36.091Z,1004.4
2017-05-19T06:43:36.097Z,1004.48
2017-05-19T06:44:36.107Z,1004.45
2017-05-19T06:45:36.112Z,1004.53
2017-05-19T06:46:36.122Z,1004.53
2017-05-19T06:47:36.131Z,1004.53
2017-05-19T06:48:36.138Z,1004.54
2017-05-19T06:49:36.194Z,1004.52
2017-05-19T06:50:36.197Z,1004.55
2017-05-19T06:51:36.162Z,1004.58
2017-05-19T06:52:36.176Z,1004.53
2017-05-19T06:53:36.180Z,1004.53
2017-05-19T06:54:36.239Z,1004.54
2017-05-19T06:55:36.245Z,1004.54
2017-05-19T06:56:36.202Z,1004.58
2017-05-19T06:57:36.222Z,1004.63
2017-05-19T06:58:36.220Z,1004.69
2017-05-19T06:59:36.229Z,1004.58
2017-05-19T07:00:36.287Z,1004.62
2017-05-19T07:01:36.244Z,1004.6
2017-05-19T07:02:36.252Z,1004.62
2017-05-19T07:03:36.262Z,1004.64
2017-05-19T07:04:36.269Z,1004.66
2017-05-19T07:05:36.279Z,1004.75
2017-05-19T07:06:36.286Z,1004.74
2017-05-19T07:07:36.293Z,1004.69
2017-05-19T07:08:36.302Z,1004.7
2017-05-19T07:09:36.311Z,1004.71
2017-05-19T07:10:36.320Z,1004.7
2017-05-19T07:11:36.329Z,1004.63
2017-05-19T07:12:36.386Z,1004.74
2017-05-19T07:13:36.345Z,1004.59
2017-05-19T07:14:36.353Z,1004.66
2017-05-19T07:15:36.360Z,1004.68
2017-05-19T07:16:36.368Z,1004.67
2017-05-19T07:17:36.377Z,1004.67
2017-05-19T07:18:36.383Z,1004.71
2017-05-19T07:19:36.444Z,1004.74
2017-05-19T07:20:36.453Z,1004.78
2017-05-19T07:21:36.459Z,1004.81
2017-05-19T07:22:36.418Z,1004.82
2017-05-19T07:23:36.427Z,1004.79
2017-05-19T07:24:36.434Z,1004.8
2017-05-19T07:25:36.442Z,1004.86
2017-05-19T07:26:36.449Z,1004.85
2017-05-19T07:27:36.459Z,1004.83
2017-05-19T07:28:36.466Z,1004.83
2017-05-19T07:29:36.474Z,1004.88
2017-05-19T07:30:36.483Z,1004.89
2017-05-19T07:31:36.491Z,1004.87
2017-05-19T07:32:36.500Z,1004.91
2017-05-19T07:33:36.508Z,1004.92
2017-05-19T07:34:36.515Z,1004.91
2017-05-19T07:35:36.574Z,1004.9
2017-05-19T07:36:36.535Z,1004.95
2017-05-19T07:37:36.589Z,1004.89
2017-05-19T07:38:36.552Z,1004.95
2017-05-19T07:39:36.556Z,1004.96
2017-05-19T07:40:36.563Z,1004.94
2017-05-19T07:41:36.571Z,1005.01
2017-05-19T07:42:36.579Z,1005.01
2017-05-19T07:43:36.588Z,1004.93
2017-05-19T07:44:36.595Z,1004.99
2017-05-19T07:45:36.604Z,1004.94
2017-05-19T07:46:36.613Z,1004.98
2017-05-19T07:47:36.620Z,1005.03
2017-05-19T07:48:36.626Z,1004.98
2017-05-19T07:49:36.637Z,1005.04
2017-05-19T07:50:36.645Z,1005.05
2017-05-19T07:51:36.652Z,1005.01
2017-05-19T07:52:36.659Z,1004.99
2017-05-19T07:53:36.669Z,1005.04
2017-05-19T07:54:36.677Z,1005.07
2017-05-19T07:55:36.735Z,1005.03
2017-05-19T07:56:36.695Z,1005.08
2017-05-19T07:57:36.703Z,1005.1
2017-05-19T07:58:36.710Z,1005.1
2017-05-19T07:59:36.719Z,1005.1
2017-05-19T08:00:36.728Z,1005.11
2017-05-19T08:01:36.734Z,1005.1
2017-05-19T08:02:36.742Z,1005.13
2017-05-19T08:03:36.751Z,1005.16
2017-05-19T08:04:36.760Z,1005.14
2017-05-19T08:05:36.768Z,1005.11
2017-05-19T08:06:36.777Z,1005.13
2017-05-19T08:07:36.835Z,1005.09
2017-05-19T08:08:36.793Z,1005.18
2017-05-19T08:09:36.803Z,1005.15
2017-05-19T08:10:36.810Z,1005.12
2017-05-19T08:11:36.819Z,1005.13
2017-05-19T08:12:36.826Z,1005.1
2017-05-19T08:13:36.834Z,1005.1
2017-05-19T08:14:36.841Z,1005.11
2017-05-19T08:15:36.848Z,1005.11
2017-05-19T08:16:36.854Z,1005.12
2017-05-19T08:17:36.859Z,1005.12
2017-05-19T08:18:36.863Z,1005.15
2017-05-19T08:19:36.870Z,1005.15
2017-05-19T08:20:36.874Z,1005.21
2017-05-19T08:21:36.877Z,1005.13
2017-05-19T08:22:36.881Z,1005.15
2017-05-19T08:23:36.885Z,1005.18
2017-05-19T08:24:36.895Z,1005.19
2017-05-19T08:25:36.894Z,1005.17
2017-05-19T08:26:36.899Z,1005.17
2017-05-19T08:27:36.952Z,1005.14
2017-05-19T08:28:36.908Z,1005.14
2017-05-19T08:29:36.910Z,1005.13
2017-05-19T08:30:36.915Z,1005.1
2017-05-19T08:31:36.917Z,1005.06
2017-05-19T08:32:36.938Z,1005.07
2017-05-19T08:33:36.926Z,1005.03
2017-05-19T08:34:37.033Z,1005.07
2017-05-19T08:35:36.982Z,1005.04
2017-05-19T08:36:36.936Z,1005
2017-05-19T08:37:36.991Z,1005
2017-05-19T08:38:36.942Z,1004.98
2017-05-19T08:39:36.948Z,1004.94
2017-05-19T08:40:36.965Z,1004.97
2017-05-19T08:41:37.005Z,1004.99
2017-05-19T08:42:36.957Z,1005.02
2017-05-19T08:43:36.961Z,1005.04
2017-05-19T08:44:36.963Z,1005.03
2017-05-19T08:45:36.967Z,1005.03
2017-05-19T08:46:36.970Z,1004.96
2017-05-19T08:47:36.973Z,1005.06
2017-05-19T08:48:36.980Z,1005.01
2017-05-19T08:49:36.979Z,1005.06
2017-05-19T08:50:37.029Z,1005.02
2017-05-19T08:51:36.984Z,1004.98
2017-05-19T08:52:37.039Z,1004.99
2017-05-19T08:53:36.989Z,1004.99
2017-05-19T08:54:36.994Z,1005.02
2017-05-19T08:55:36.998Z,1005.01
2017-05-19T08:56:37.004Z,1005.05
2017-05-19T08:57:37.008Z,1005.06
2017-05-19T08:58:37.014Z,1005.12
2017-05-19T08:59:37.019Z,1005.1
2017-05-19T09:00:37.024Z,1005.06
2017-05-19T09:01:37.031Z,1005.14
2017-05-19T09:02:37.038Z,1005.1
2017-05-19T09:03:37.043Z,1005.19
2017-05-19T09:04:37.050Z,1005.14
2017-05-19T09:05:37.057Z,1005.14
2017-05-19T09:06:37.065Z,1005.17
2017-05-19T09:07:37.074Z,1005.12
2017-05-19T09:08:37.079Z,1005.13
2017-05-19T09:09:37.088Z,1005.12
2017-05-19T09:10:37.094Z,1005.08
2017-05-19T09:11:37.102Z,1005.1
2017-05-19T09:12:37.109Z,1005.14
2017-05-19T09:13:37.116Z,1005.05
2017-05-19T09:14:37.124Z,1005.06
2017-05-19T09:15:37.130Z,1005.08
2017-05-19T09:16:37.139Z,1005.1
2017-05-19T09:17:37.146Z,1005.06
2017-05-19T09:18:37.158Z,1005.12
2017-05-19T09:19:37.162Z,1005.04
2017-05-19T09:20:37.170Z,1005.06
2017-05-19T09:21:37.180Z,1005.09
2017-05-19T09:22:37.199Z,1005.1
2017-05-19T09:23:37.194Z,1005.01
2017-05-19T09:24:37.201Z,1005.05
2017-05-19T09:25:37.210Z,1005.02
2017-05-19T09:26:37.216Z,1005.04
2017-05-19T09:27:37.225Z,1005.05
2017-05-19T09:28:37.230Z,1005.1
2017-05-19T09:29:37.297Z,1005.07
2017-05-19T09:30:37.246Z,1005.12
2017-05-19T09:31:37.255Z,1005.09
2017-05-19T09:32:37.264Z,1005.1
2017-05-19T09:33:37.270Z,1005.09
2017-05-19T09:34:37.278Z,1005.05
2017-05-19T09:35:37.286Z,1005.14
2017-05-19T09:36:37.295Z,1005.08
2017-05-19T09:37:37.302Z,1005.07
2017-05-19T09:38:37.311Z,1005.13
2017-05-19T09:39:37.319Z,1005.11
2017-05-19T09:40:37.377Z,1005.12
2017-05-19T09:41:37.334Z,1005.16
2017-05-19T09:42:37.403Z,1005.15
2017-05-19T09:43:37.350Z,1005.13
2017-05-19T09:44:37.357Z,1005.18
2017-05-19T09:45:37.367Z,1005.17
2017-05-19T09:46:37.422Z,1005.2
2017-05-19T09:47:37.383Z,1005.17
2017-05-19T09:48:37.388Z,1005.17
2017-05-19T09:49:37.398Z,1005.17
2017-05-19T09:50:37.407Z,1005.18
2017-05-19T09:51:37.714Z,1005.18
2017-05-19T09:52:37.422Z,1005.15
2017-05-19T09:53:37.429Z,1005.26
2017-05-19T09:54:37.437Z,1005.18
2017-05-19T09:55:37.445Z,1005.23
2017-05-19T09:56:37.453Z,1005.21
2017-05-19T09:57:37.512Z,1005.24
2017-05-19T09:58:37.470Z,1005.21
2017-05-19T09:59:37.477Z,1005.25
2017-05-19T10:00:37.486Z,1005.2
2017-05-19T10:01:37.492Z,1005.2
2017-05-19T10:02:37.503Z,1005.21
2017-05-19T10:03:37.509Z,1005.25
2017-05-19T10:04:37.517Z,1005.26
2017-05-19T10:05:37.527Z,1005.22
2017-05-19T10:06:37.533Z,1005.36
2017-05-19T10:07:37.591Z,1005.31
2017-05-19T10:08:37.553Z,1005.27
2017-05-19T10:09:37.558Z,1005.24
2017-05-19T10:10:37.566Z,1005.25
2017-05-19T10:11:37.575Z,1005.25
2017-05-19T10:12:37.583Z,1005.27
2017-05-19T10:13:37.591Z,1005.27
2017-05-19T10:14:37.599Z,1005.27
2017-05-19T10:15:37.607Z,1005.23
2017-05-19T10:16:37.615Z,1005.25
2017-05-19T10:17:37.624Z,1005.26
2017-05-19T10:18:37.636Z,1005.29
2017-05-19T10:19:37.641Z,1005.28
2017-05-19T10:20:37.649Z,1005.31
2017-05-19T10:21:37.656Z,1005.24
2017-05-19T10:22:37.665Z,1005.28
2017-05-19T10:23:37.673Z,1005.36
2017-05-19T10:24:37.681Z,1005.32
2017-05-19T10:25:37.689Z,1005.3
2017-05-19T10:26:37.697Z,1005.3
2017-05-19T10:27:37.707Z,1005.29
2017-05-19T10:28:37.714Z,1005.28
2017-05-19T10:29:37.723Z,1005.32
2017-05-19T10:30:37.730Z,1005.27
2017-05-19T10:31:37.738Z,1005.38
2017-05-19T10:32:37.745Z,1005.28
2017-05-19T10:33:37.753Z,1005.31
2017-05-19T10:34:37.764Z,1005.3
2017-05-19T10:35:37.770Z,1005.28
2017-05-19T10:36:37.779Z,1005.26
2017-05-19T10:37:37.787Z,1005.25
2017-05-19T10:38:37.796Z,1005.29
2017-05-19T10:39:37.803Z,1005.3
2017-05-19T10:40:37.812Z,1005.26
2017-05-19T10:41:37.821Z,1005.28
2017-05-19T10:42:37.829Z,1005.3
2017-05-19T10:43:37.837Z,1005.34
2017-05-19T10:44:37.843Z,1005.21
2017-05-19T10:45:37.903Z,1005.28
2017-05-19T10:46:37.862Z,1005.28
2017-05-19T10:47:37.870Z,1005.28
2017-05-19T10:48:37.928Z,1005.31
2017-05-19T10:49:37.887Z,1005.28
2017-05-19T10:50:37.895Z,1005.25
2017-05-19T10:51:37.903Z,1005.25
2017-05-19T10:52:37.912Z,1005.3
2017-05-19T10:53:37.922Z,1005.28
2017-05-19T10:54:37.928Z,1005.26
2017-05-19T10:55:37.941Z,1005.32
2017-05-19T10:56:37.944Z,1005.37
2017-05-19T10:57:38.002Z,1005.31
2017-05-19T10:58:37.961Z,1005.29
2017-05-19T10:59:37.970Z,1005.25
2017-05-19T11:00:38.032Z,1005.28
2017-05-19T11:01:37.988Z,1005.23
2017-05-19T11:02:37.997Z,1005.29
2017-05-19T11:03:38.005Z,1005.28
2017-05-19T11:04:38.013Z,1005.26
2017-05-19T11:05:38.022Z,1005.3
2017-05-19T11:06:38.030Z,1005.27
2017-05-19T11:07:38.095Z,1005.34
2017-05-19T11:08:38.046Z,1005.31
2017-05-19T11:09:38.056Z,1005.34
2017-05-19T11:10:38.063Z,1005.41
2017-05-19T11:11:38.072Z,1005.39
2017-05-19T11:12:38.079Z,1005.45
2017-05-19T11:13:38.088Z,1005.44
2017-05-19T11:14:38.097Z,1005.45
2017-05-19T11:15:38.155Z,1005.44
2017-05-19T11:16:38.114Z,1005.47
2017-05-19T11:17:38.175Z,1005.47
2017-05-19T11:18:38.130Z,1005.47
2017-05-19T11:19:38.139Z,1005.5
2017-05-19T11:20:38.147Z,1005.45
2017-05-19T11:21:38.154Z,1005.48
2017-05-19T11:22:38.165Z,1005.5
2017-05-19T11:23:38.171Z,1005.5
2017-05-19T11:24:38.179Z,1005.54
2017-05-19T11:25:38.192Z,1005.49
2017-05-19T11:26:38.198Z,1005.49
2017-05-19T11:27:38.256Z,1005.48
2017-05-19T11:28:38.212Z,1005.46
2017-05-19T11:29:38.225Z,1005.5
2017-05-19T11:30:38.231Z,1005.51
2017-05-19T11:31:38.239Z,1005.55
2017-05-19T11:32:38.251Z,1005.57
2017-05-19T11:33:38.305Z,1005.56
2017-05-19T11:34:38.262Z,1005.51
2017-05-19T11:35:38.340Z,1005.54
2017-05-19T11:36:38.282Z,1005.59
2017-05-19T11:37:38.288Z,1005.59
2017-05-19T11:38:38.296Z,1005.6
2017-05-19T11:39:38.304Z,1005.64
2017-05-19T11:40:38.313Z,1005.57
2017-05-19T11:41:38.321Z,1005.57
2017-05-19T11:42:38.329Z,1005.65
2017-05-19T11:43:38.336Z,1005.6
2017-05-19T11:44:38.346Z,1005.66
2017-05-19T11:45:38.403Z,1005.65
2017-05-19T11:46:38.363Z,1005.63
2017-05-19T11:47:38.421Z,1005.67
2017-05-19T11:48:38.381Z,1005.64
2017-05-19T11:49:38.388Z,1005.64
2017-05-19T11:50:38.399Z,1005.67
2017-05-19T11:51:38.405Z,1005.64
2017-05-19T11:52:38.413Z,1005.6
2017-05-19T11:53:38.420Z,1005.6
2017-05-19T11:54:38.430Z,1005.6
2017-05-19T11:55:38.440Z,1005.54
2017-05-19T11:56:38.448Z,1005.62
2017-05-19T11:57:38.454Z,1005.59
2017-05-19T11:58:38.472Z,1005.6
2017-05-19T11:59:38.472Z,1005.61
2017-05-19T12:00:38.537Z,1005.67
2017-05-19T12:01:38.489Z,1005.65
2017-05-19T12:02:38.496Z,1005.62
2017-05-19T12:03:38.507Z,1005.63
2017-05-19T12:04:38.513Z,1005.62
2017-05-19T12:05:38.523Z,1005.58
2017-05-19T12:06:38.530Z,1005.63
2017-05-19T12:07:38.542Z,1005.61
2017-05-19T12:08:38.598Z,1005.65
2017-05-19T12:09:38.557Z,1005.64